Flight Track Log - Related Links

Times and Time Zones

All times are in EDT time to prevent confusion due to time zone crossing. See the WAV261 flight status page for this flight to view local times or setup timezone preferences in your user account.


Time Position Orientation Groundspeed Altitude Reporting Facility
EDT Latitude Longitude Course Direction KTS MPH feet Rate Location/Type
Mon 10:35:36 PM 66.4833 -145.4333 212° Southwest 140 161 5,200  Level Anchorage Center
Mon 10:36:37 PM 66.4500 -145.5000 219° Southwest 150 173 6,300 1,041 Climbing Anchorage Center
Mon 10:37:37 PM 66.4167 -145.5500 211° Southwest 140 161 7,300 850 Climbing Anchorage Center
Mon 10:38:00 PM 66.3449 -145.6088 212° Southwest  Level Estimated
Mon 10:38:37 PM 66.3833 -145.6000 211° Southwest 160 184 8,000  Level Anchorage Center
Mon 10:39:00 PM 66.3067 -145.6680 212° Southwest  Level FlightAware Approximate
Mon 10:39:38 PM 66.3333 -145.6667 208° Southwest 190 219 8,000  Level Anchorage Center
Mon 10:40:00 PM 66.2686 -145.7270 212° Southwest  Level FlightAware Approximate
Mon 10:40:38 PM 66.3000 -145.7333 219° Southwest 190 219 8,000  Level Anchorage Center
Mon 10:41:00 PM 66.2304 -145.7858 212° Southwest  Level FlightAware Approximate
Mon 10:41:38 PM 66.2500 -145.8000 208° Southwest 170 196 8,000  Level Anchorage Center
Mon 10:42:39 PM 66.2000 -145.8667 208° Southwest 180 207 8,000  Level Anchorage Center
Mon 10:43:39 PM 66.1667 -145.9333 219° Southwest 180 207 8,000  Level Anchorage Center
Mon 10:44:39 PM 66.1167 -146.0000 208° Southwest 170 196 8,000  Level Anchorage Center
Mon 10:45:40 PM 66.0833 -146.0500 211° Southwest 180 207 8,000  Level Anchorage Center
Mon 10:46:40 PM 66.0333 -146.1167 208° Southwest 180 207 8,000  Level Anchorage Center
Mon 10:47:40 PM 66.0000 -146.1833 219° Southwest 170 196 8,000  Level Anchorage Center
Mon 10:48:41 PM 65.9500 -146.2333 202° Southwest 170 196 8,000  Level Anchorage Center
Mon 10:49:41 PM 65.9167 -146.3000 219° Southwest 180 207 8,000  Level Anchorage Center
Mon 10:50:41 PM 65.8667 -146.3667 209° Southwest 170 196 8,000  Level Anchorage Center
Mon 10:51:42 PM 65.8333 -146.4333 219° Southwest 170 196 8,000  Level Anchorage Center
Mon 10:52:42 PM 65.7833 -146.4833 202° Southwest 180 207 8,000  Level Anchorage Center
Mon 10:53:43 PM 65.7500 -146.5333 212° Southwest 170 196 8,000  Level Anchorage Center
Mon 10:54:43 PM 65.7167 -146.6000 219° Southwest 170 196 8,000  Level Anchorage Center
Mon 10:55:43 PM 65.6667 -146.6667 209° Southwest 160 184 8,000  Level Anchorage Center
Mon 10:56:43 PM 65.6333 -146.7167 212° Southwest 180 207 8,000  Level Anchorage Center
Mon 10:57:44 PM 65.5833 -146.7833 209° Southwest 170 196 8,000  Level Anchorage Center
Mon 10:58:44 PM 65.5500 -146.8333 212° Southwest 170 196 8,000  Level Anchorage Center
Mon 10:59:44 PM 65.5000 -146.9000 209° Southwest 160 184 8,000  Level Anchorage Center
Mon 11:00:44 PM 65.4667 -146.9500 212° Southwest 170 196 8,000  Level Anchorage Center
Mon 11:02:00 PM 65.4165 -147.0150 208° Southwest  Level FlightAware Approximate
Mon 11:09:00 PM 65.1456 -147.3811 209° Southwest  Level FlightAware Approximate
Mon 11:10:00 PM 65.1061 -147.4323 209° Southwest  Level FlightAware Approximate
Mon 11:11:00 PM 65.0666 -147.4834 211° Southwest  Level FlightAware Approximate
Mon 11:12:00 PM 65.0279 -147.5374 211° Southwest  Level FlightAware Approximate
Mon 11:13:00 PM 64.9892 -147.5913 210° Southwest  Level FlightAware Approximate
Mon 11:14:00 PM 64.9504 -147.6450 210° Southwest  Level FlightAware Approximate
Mon 11:15:00 PM 64.9116 -147.6986 210° Southwest  Level FlightAware Approximate
Mon 11:16:00 PM 64.8728 -147.7520 210° Southwest  Level FlightAware Approximate
Mon 11:17:00 PM 64.8339 -147.8049 210° Southwest  Level FlightAware Approximate
Mon 11:18:00 PM 64.8151 -147.8564 210° Southwest  Level Estimated
Mon 11:19:00 PM 64.8151 -147.8564 210° Southwest  Level Estimated
Mon 11:20:00 PM 64.8151 -147.8564 210° Southwest  Level Estimated
Mon 11:21:00 PM 64.8151 -147.8564 210° Southwest  Level Estimated
Mon 11:22:00 PM 64.8151 -147.8564 210° Southwest  Level Estimated
Mon 11:23:00 PM 64.8151 -147.8564 210° Southwest  Level Estimated
Mon 11:24:00 PM 64.8151 -147.8564 210° Southwest  Level Estimated
Mon 11:25:00 PM 64.8151 -147.8564 210° Southwest  Level Estimated
Mon 11:26:00 PM 64.8151 -147.8564 210° Southwest  Level Estimated
Mon 11:27:00 PM 64.8151 -147.8564 210° Southwest  Level Estimated
Mon 11:28:00 PM 64.8151 -147.8564 210° Southwest  Level Estimated

Login

Don't have an account? Register now (free) for customized features, flight alerts, and more!